createdAt,value
2022-11-16T00:00:35.409Z,35.4286
2022-11-16T00:01:35.444Z,34.6429
2022-11-16T00:02:35.503Z,35.4286
2022-11-16T00:03:35.528Z,35.2143
2022-11-16T00:04:35.536Z,34.1429
2022-11-16T00:05:35.576Z,35.7143
2022-11-16T00:06:35.596Z,34.8571
2022-11-16T00:07:35.691Z,34.5
2022-11-16T00:08:35.890Z,35.5
2022-11-16T00:09:35.737Z,34.5
2022-11-16T00:10:35.725Z,34.9286
2022-11-16T00:11:35.757Z,33.7143
2022-11-16T00:12:35.770Z,34.5
2022-11-16T00:13:35.798Z,35.5
2022-11-16T00:14:35.861Z,34.7143
2022-11-16T00:15:35.873Z,35.4286
2022-11-16T00:16:35.882Z,34
2022-11-16T00:17:35.919Z,34.5
2022-11-16T00:18:36.097Z,34.1429
2022-11-16T00:19:35.999Z,34.6429
2022-11-16T00:20:36.017Z,34.7143
2022-11-16T00:21:36.043Z,34.4286
2022-11-16T00:22:36.075Z,33.1429
2022-11-16T00:23:36.101Z,34.2143
2022-11-16T00:24:36.148Z,36
2022-11-16T00:25:36.154Z,34.4286
2022-11-16T00:26:36.191Z,34.5
2022-11-16T00:27:36.248Z,34.6429
2022-11-16T00:28:36.492Z,35.1429
2022-11-16T00:29:36.294Z,33.3571
2022-11-16T00:30:36.336Z,35.2143
2022-11-16T00:31:36.363Z,34.4286
2022-11-16T00:32:36.408Z,36.6429
2022-11-16T00:33:36.428Z,33.7143
2022-11-16T00:34:36.450Z,33.6429
2022-11-16T00:35:36.487Z,34.8571
2022-11-16T00:36:36.533Z,33.4286
2022-11-16T00:37:36.543Z,34.3571
2022-11-16T00:38:36.719Z,33
2022-11-16T00:39:36.608Z,33.8571
2022-11-16T00:40:36.637Z,34.9286
2022-11-16T00:41:36.668Z,35.1429
2022-11-16T00:42:36.701Z,33.5
2022-11-16T00:43:36.731Z,33.3571
2022-11-16T00:44:36.773Z,34.2143
2022-11-16T00:45:36.811Z,34
2022-11-16T00:46:36.833Z,33.6429
2022-11-16T00:47:36.864Z,34.9286
2022-11-16T00:48:37.003Z,34.1429
2022-11-16T00:49:36.931Z,33.2143
2022-11-16T00:50:36.979Z,33.1429
2022-11-16T00:51:36.983Z,33
2022-11-16T00:52:37.020Z,32.5
2022-11-16T00:53:37.051Z,32.9286
2022-11-16T00:54:37.079Z,33.4286
2022-11-16T00:55:37.134Z,34.1429
2022-11-16T00:56:37.163Z,33.1429
2022-11-16T00:57:37.176Z,33.3571
2022-11-16T00:58:37.205Z,33.6429
2022-11-16T00:59:37.236Z,33.1429
2022-11-16T01:00:37.287Z,31.7143
2022-11-16T01:01:37.424Z,33.7143
2022-11-16T01:02:37.327Z,33.7143
2022-11-16T01:03:37.362Z,34.3571
2022-11-16T01:04:37.377Z,34.8571
2022-11-16T01:05:37.407Z,34.8571
2022-11-16T01:06:37.465Z,34.5
2022-11-16T01:07:37.632Z,34.5
2022-11-16T01:08:37.496Z,35.1429
2022-11-16T01:09:37.519Z,33.9286
2022-11-16T01:10:37.569Z,34
2022-11-16T01:11:37.597Z,34.1429
2022-11-16T01:12:37.615Z,32.6429
2022-11-16T01:13:37.667Z,32.7143
2022-11-16T01:14:37.668Z,33.9286
2022-11-16T01:15:37.713Z,32.7143
2022-11-16T01:16:37.741Z,33.7143
2022-11-16T01:17:37.763Z,33.6429
2022-11-16T01:18:37.797Z,34
2022-11-16T01:19:37.821Z,33.2143
2022-11-16T01:20:37.848Z,32.9286
2022-11-16T01:21:37.877Z,31.6429
2022-11-16T01:22:37.913Z,33
2022-11-16T01:23:37.939Z,32.8571
2022-11-16T01:24:37.968Z,31.3571
2022-11-16T01:25:37.991Z,31.6429
2022-11-16T01:26:38.064Z,32.9286
2022-11-16T01:27:38.067Z,31.1429
2022-11-16T01:28:38.095Z,30.6429
2022-11-16T01:29:38.131Z,30.8571
2022-11-16T01:30:38.161Z,31.7143
2022-11-16T01:31:38.207Z,31.4286
2022-11-16T01:32:38.216Z,31.6429
2022-11-16T01:33:38.247Z,32.1429
2022-11-16T01:34:38.282Z,29.9286
2022-11-16T01:35:38.332Z,30.6429
2022-11-16T01:36:38.349Z,30.7143
2022-11-16T01:37:38.378Z,31.1429
2022-11-16T01:38:38.408Z,30.4286
2022-11-16T01:39:38.449Z,30.6429
2022-11-16T01:40:38.463Z,30.2143
2022-11-16T01:41:38.505Z,30.2143
2022-11-16T01:42:38.538Z,30.6429
2022-11-16T01:43:38.572Z,29.2143
2022-11-16T01:44:38.626Z,30.3571
2022-11-16T01:45:38.639Z,29.3571
2022-11-16T01:46:38.682Z,29.9286
2022-11-16T01:47:38.700Z,31.5
2022-11-16T01:48:38.896Z,31.3571
2022-11-16T01:49:38.752Z,30.5
2022-11-16T01:50:38.793Z,30.7143
2022-11-16T01:51:38.838Z,29.9286
2022-11-16T01:52:38.850Z,30
2022-11-16T01:53:38.869Z,31.4286
2022-11-16T01:54:38.905Z,29.5
2022-11-16T01:55:38.934Z,29.3571
2022-11-16T01:56:38.994Z,29.5
2022-11-16T01:57:39.009Z,29.8571
2022-11-16T01:58:39.055Z,29.3571
2022-11-16T01:59:39.058Z,30.5
2022-11-16T02:00:39.088Z,30.9286
2022-11-16T02:01:39.213Z,29.9286
2022-11-16T02:02:39.147Z,29.1429
2022-11-16T02:03:39.202Z,29
2022-11-16T02:04:39.208Z,29.1429
2022-11-16T02:05:39.233Z,29.5
2022-11-16T02:06:39.270Z,30.7143
2022-11-16T02:07:39.295Z,30.2143
2022-11-16T02:08:39.344Z,30.4286
2022-11-16T02:09:39.364Z,30.3571
2022-11-16T02:10:39.396Z,30.1429
2022-11-16T02:11:39.418Z,30.3571
2022-11-16T02:12:39.454Z,29.2143
2022-11-16T02:13:39.506Z,29.5
2022-11-16T02:14:39.514Z,31.3571
2022-11-16T02:15:39.540Z,29.3571
2022-11-16T02:16:39.571Z,31
2022-11-16T02:17:39.606Z,30.6429
2022-11-16T02:18:39.658Z,30.1429
2022-11-16T02:19:39.658Z,29.2143
2022-11-16T02:20:39.708Z,29.7143
2022-11-16T02:21:39.722Z,30.2143
2022-11-16T02:22:39.775Z,30.6429
2022-11-16T02:23:39.807Z,30.4286
2022-11-16T02:24:39.828Z,31.4286
2022-11-16T02:25:39.846Z,30.9286
2022-11-16T02:26:39.882Z,30.7143
2022-11-16T02:27:39.934Z,30.7143
2022-11-16T02:28:39.949Z,30.5
2022-11-16T02:29:39.981Z,31.5
2022-11-16T02:30:40.027Z,30.1429
2022-11-16T02:31:40.037Z,30.5
2022-11-16T02:32:40.070Z,30.5
2022-11-16T02:33:40.101Z,30.9286
2022-11-16T02:34:40.126Z,29.1429
2022-11-16T02:35:40.190Z,32.1429
2022-11-16T02:36:40.230Z,30.9286
2022-11-16T02:37:40.232Z,31.8571
2022-11-16T02:38:40.259Z,29.5
2022-11-16T02:39:40.295Z,31.4286
2022-11-16T02:40:40.341Z,30.4286
2022-11-16T02:41:40.348Z,30.3571
2022-11-16T02:42:40.381Z,31
2022-11-16T02:43:40.408Z,31.3571
2022-11-16T02:44:40.439Z,30
2022-11-16T02:45:40.486Z,31.4286
2022-11-16T02:46:40.500Z,31
2022-11-16T02:47:40.509Z,29.8571
2022-11-16T02:48:40.545Z,31.6429
2022-11-16T02:49:40.578Z,30.5
2022-11-16T02:50:40.611Z,30.1429
2022-11-16T02:51:40.663Z,28.9286
2022-11-16T02:52:40.687Z,30.1429
2022-11-16T02:53:40.704Z,30
2022-11-16T02:54:40.730Z,30.1429
2022-11-16T02:55:40.759Z,29.2143
2022-11-16T02:56:40.816Z,29.7143
2022-11-16T02:57:40.823Z,29.8571
2022-11-16T02:58:40.848Z,29.4286
2022-11-16T02:59:40.873Z,29
2022-11-16T03:00:40.923Z,29.7143
2022-11-16T03:01:40.958Z,28.5
2022-11-16T03:02:40.957Z,30.3571
2022-11-16T03:03:40.988Z,29.2143
2022-11-16T03:04:41.019Z,29
2022-11-16T03:05:41.040Z,29.8571
2022-11-16T03:06:41.091Z,28.9286
2022-11-16T03:07:41.102Z,29.3571
2022-11-16T03:08:41.145Z,29.9286
2022-11-16T03:09:41.171Z,30.4286
2022-11-16T03:10:41.204Z,28.9286
2022-11-16T03:11:41.249Z,29.9286
2022-11-16T03:12:41.288Z,29.7143
2022-11-16T03:13:41.320Z,29.1429
2022-11-16T03:14:41.345Z,29.5
2022-11-16T03:15:41.373Z,28.2143
2022-11-16T03:16:41.408Z,29.2143
2022-11-16T03:17:41.470Z,28.9286
2022-11-16T03:18:41.477Z,30.4286
2022-11-16T03:19:41.506Z,28.5
2022-11-16T03:20:41.543Z,29.4286
2022-11-16T03:21:41.581Z,28.3571
2022-11-16T03:22:41.616Z,30.4286
2022-11-16T03:23:41.650Z,28.9286
2022-11-16T03:24:41.677Z,28.7143
2022-11-16T03:25:41.684Z,28
2022-11-16T03:26:41.707Z,29.4286
2022-11-16T03:27:41.749Z,29.9286
2022-11-16T03:28:41.805Z,29.2143
2022-11-16T03:29:41.836Z,29.4286
2022-11-16T03:30:41.847Z,29.5
2022-11-16T03:31:41.880Z,28.9286
2022-11-16T03:32:41.906Z,29
2022-11-16T03:33:41.937Z,29.7143
2022-11-16T03:34:41.991Z,28.6429
2022-11-16T03:35:41.993Z,28.8571
2022-11-16T03:36:42.025Z,29.4286
2022-11-16T03:37:42.056Z,28.1429
2022-11-16T03:38:42.097Z,28.9286
2022-11-16T03:39:42.148Z,28.7143
2022-11-16T03:40:42.147Z,29.9286
2022-11-16T03:41:42.203Z,28.8571
2022-11-16T03:42:42.214Z,28.6429
2022-11-16T03:43:42.244Z,29.1429
2022-11-16T03:44:42.273Z,30
2022-11-16T03:45:42.300Z,29.7143
2022-11-16T03:46:42.359Z,30.1429
2022-11-16T03:47:42.373Z,29.6429
2022-11-16T03:48:42.399Z,30
2022-11-16T03:49:42.427Z,29.5
2022-11-16T03:50:42.476Z,29.7143
2022-11-16T03:51:42.479Z,30.7143
2022-11-16T03:52:42.516Z,30
2022-11-16T03:53:42.548Z,29.6429
2022-11-16T03:54:42.578Z,28.7143
2022-11-16T03:55:46.999Z,30.6429
2022-11-16T03:56:42.673Z,31.5
2022-11-16T03:57:42.701Z,30.2143
2022-11-16T03:58:42.714Z,30.1429
2022-11-16T03:59:42.748Z,29
2022-11-16T04:00:42.849Z,29.9286
2022-11-16T04:01:44.913Z,30.1429
2022-11-16T04:02:42.829Z,30
2022-11-16T04:03:42.882Z,30.2143
2022-11-16T04:04:42.889Z,29.9286
2022-11-16T04:05:42.922Z,29.7143
2022-11-16T04:06:42.953Z,30.8571
2022-11-16T04:07:43.006Z,30.2143
2022-11-16T04:08:43.018Z,30.1429
2022-11-16T04:09:43.050Z,30
2022-11-16T04:10:43.084Z,31.9286
2022-11-16T04:11:43.131Z,29.7143
2022-11-16T04:12:43.144Z,28.9286
2022-11-16T04:13:43.167Z,31.4286
2022-11-16T04:14:43.204Z,29.8571
2022-11-16T04:15:43.229Z,29.8571
2022-11-16T04:16:43.275Z,29.8571
2022-11-16T04:17:43.292Z,29.7143
2022-11-16T04:18:43.316Z,30.9286
2022-11-16T04:19:43.347Z,29.8571
2022-11-16T04:20:43.384Z,30.6429
2022-11-16T04:21:43.429Z,30.5
2022-11-16T04:22:43.439Z,31.3571
2022-11-16T04:23:43.472Z,30.1429
2022-11-16T04:24:43.499Z,31.2143
2022-11-16T04:25:43.544Z,32
2022-11-16T04:26:43.548Z,31.8571
2022-11-16T04:27:43.580Z,30.4286
2022-11-16T04:28:43.610Z,31.3571
2022-11-16T04:29:43.643Z,31.6429
2022-11-16T04:30:43.686Z,32.4286
2022-11-16T04:31:43.701Z,33.1429
2022-11-16T04:32:43.730Z,33
2022-11-16T04:33:43.757Z,33.3571
2022-11-16T04:34:43.819Z,32
2022-11-16T04:35:43.825Z,33.4286
2022-11-16T04:36:43.860Z,34.1429
2022-11-16T04:37:43.898Z,34
2022-11-16T04:38:43.929Z,34.6429
2022-11-16T04:39:43.978Z,34.6429
2022-11-16T04:40:43.990Z,35.7143
2022-11-16T04:41:44.018Z,35
2022-11-16T04:42:44.064Z,33.7143
2022-11-16T04:43:44.081Z,35.4286
2022-11-16T04:44:44.132Z,36.1429
2022-11-16T04:45:44.145Z,36.7143
2022-11-16T04:46:44.171Z,34.9286
2022-11-16T04:47:44.210Z,35.3571
2022-11-16T04:48:44.244Z,36.3571
2022-11-16T04:49:44.296Z,35.8571
2022-11-16T04:50:44.301Z,38
2022-11-16T04:51:44.348Z,35.6429
2022-11-16T04:52:44.369Z,34.1429
2022-11-16T04:53:44.410Z,36.6429
2022-11-16T04:54:44.433Z,38.2143
2022-11-16T04:55:44.491Z,37.3571
2022-11-16T04:56:44.501Z,37
2022-11-16T04:57:44.546Z,37.7143
2022-11-16T04:58:44.565Z,37.8571
2022-11-16T04:59:44.591Z,37.2143
2022-11-16T05:00:44.637Z,37.9286
2022-11-16T05:01:44.759Z,37.6429
2022-11-16T05:02:44.679Z,37.7143
2022-11-16T05:03:44.708Z,35.5
2022-11-16T05:04:44.733Z,38.8571
2022-11-16T05:05:44.763Z,37.3571
2022-11-16T05:06:44.823Z,37.6429
2022-11-16T05:07:44.835Z,38.2143
2022-11-16T05:08:44.862Z,37.9286
2022-11-16T05:09:44.896Z,37.3571
2022-11-16T05:10:44.939Z,37.8571
2022-11-16T05:11:44.986Z,37.7143
2022-11-16T05:12:44.991Z,38.5
2022-11-16T05:13:45.026Z,36.5
2022-11-16T05:14:45.054Z,34.8571
2022-11-16T05:15:45.089Z,36.3571
2022-11-16T05:16:45.137Z,37.6429
2022-11-16T05:17:45.173Z,35.8571
2022-11-16T05:18:45.189Z,36.8571
2022-11-16T05:19:45.225Z,36.1429
2022-11-16T05:20:45.282Z,36.7143
2022-11-16T05:21:45.291Z,37.5
2022-11-16T05:22:45.324Z,34.8571
2022-11-16T05:23:45.348Z,37.5
2022-11-16T05:24:45.362Z,35.4286
2022-11-16T05:25:45.414Z,36.5
2022-11-16T05:26:45.426Z,36.7143
2022-11-16T05:27:45.455Z,36.3571
2022-11-16T05:28:45.490Z,37.8571
2022-11-16T05:29:45.569Z,36.2143
2022-11-16T05:30:45.550Z,38
2022-11-16T05:31:45.588Z,36.5
2022-11-16T05:32:45.616Z,37.2143
2022-11-16T05:33:45.639Z,37.7143
2022-11-16T05:34:45.695Z,36.4286
2022-11-16T05:35:45.705Z,35.9286
2022-11-16T05:36:45.733Z,36.8571
2022-11-16T05:37:45.766Z,35.9286
2022-11-16T05:38:45.798Z,38
2022-11-16T05:39:45.849Z,37.3571
2022-11-16T05:40:45.862Z,35.3571
2022-11-16T05:41:45.895Z,36.2143
2022-11-16T05:42:45.929Z,36.6429
2022-11-16T05:43:45.970Z,36
2022-11-16T05:44:45.999Z,36.7143
2022-11-16T05:45:46.043Z,38.1429
2022-11-16T05:46:46.073Z,36.3571
2022-11-16T05:47:46.102Z,37
2022-11-16T05:48:46.151Z,37.1429
2022-11-16T05:49:46.164Z,37.7143
2022-11-16T05:50:46.183Z,38.1429
2022-11-16T05:51:46.214Z,38.1429
2022-11-16T05:52:46.271Z,39.3571
2022-11-16T05:53:46.275Z,37.9286
2022-11-16T05:54:46.310Z,36.8571
2022-11-16T05:55:46.454Z,36.8571
2022-11-16T05:56:46.371Z,38.9286
2022-11-16T05:57:46.399Z,36.6429
2022-11-16T05:58:46.431Z,35.3571
2022-11-16T05:59:46.449Z,36.5
2022-11-16T06:00:46.502Z,37.6429
2022-11-16T06:01:46.512Z,37.7143
2022-11-16T06:02:46.537Z,37.2143
2022-11-16T06:03:46.580Z,38.3571
2022-11-16T06:04:46.586Z,36.8571
2022-11-16T06:05:46.645Z,36.7143
2022-11-16T06:06:46.683Z,38.1429
2022-11-16T06:07:46.681Z,37
2022-11-16T06:08:46.710Z,37.6429
2022-11-16T06:09:46.741Z,39.2143
2022-11-16T06:10:46.775Z,37.3571
2022-11-16T06:11:46.811Z,38.3571
2022-11-16T06:12:46.835Z,37.1429
2022-11-16T06:13:46.865Z,39.4286
2022-11-16T06:14:46.910Z,39.8571
2022-11-16T06:15:52.303Z,40.2143
2022-11-16T06:16:46.994Z,38
2022-11-16T06:17:47.006Z,39.5
2022-11-16T06:18:47.049Z,39.1429
2022-11-16T06:19:47.077Z,38.9286
2022-11-16T06:20:47.110Z,38.2143
2022-11-16T06:21:47.159Z,39.1429
2022-11-16T06:22:47.181Z,38.2143
2022-11-16T06:23:47.196Z,38.6429
2022-11-16T06:24:47.231Z,39.3571
2022-11-16T06:25:47.260Z,37.4286
2022-11-16T06:26:47.307Z,38.8571
2022-11-16T06:27:47.315Z,40
2022-11-16T06:28:47.348Z,38.5
2022-11-16T06:29:47.377Z,38.6429
2022-11-16T06:30:47.411Z,39.2143
2022-11-16T06:31:47.467Z,40.4286
2022-11-16T06:32:47.481Z,38.1429
2022-11-16T06:33:47.518Z,38.5
2022-11-16T06:34:47.545Z,37.4286
2022-11-16T06:35:47.588Z,38.9286
2022-11-16T06:36:47.593Z,38.3571
2022-11-16T06:37:47.650Z,39.3571
2022-11-16T06:38:47.653Z,38.8571
2022-11-16T06:39:47.716Z,40
2022-11-16T06:40:47.732Z,39.9286
2022-11-16T06:41:47.756Z,40.4286
2022-11-16T06:42:47.778Z,41.8571
2022-11-16T06:43:47.815Z,40.2143
2022-11-16T06:44:47.864Z,39.3571
2022-11-16T06:45:47.892Z,40.1429
2022-11-16T06:46:47.910Z,39.7143
2022-11-16T06:47:47.937Z,40.2143
2022-11-16T06:48:47.973Z,39.8571
2022-11-16T06:49:47.996Z,40.9286
2022-11-16T06:50:48.055Z,41.2143
2022-11-16T06:51:48.066Z,42.9286
2022-11-16T06:52:48.080Z,40.8571
2022-11-16T06:53:48.110Z,41
2022-11-16T06:54:48.145Z,39
2022-11-16T06:55:48.194Z,40.6429
2022-11-16T06:56:48.225Z,41
2022-11-16T06:57:48.237Z,39.1429
2022-11-16T06:58:52.993Z,40.8571
2022-11-16T06:59:48.305Z,39
2022-11-16T07:00:48.350Z,38.8571
2022-11-16T07:01:48.425Z,38.5
2022-11-16T07:02:48.389Z,40.8571
2022-11-16T07:03:48.426Z,41.2143
2022-11-16T07:04:48.467Z,39.2143
2022-11-16T07:05:48.510Z,40.4286
2022-11-16T07:06:48.605Z,39.8571
2022-11-16T07:07:48.553Z,40.5
2022-11-16T07:08:48.581Z,40.6429
2022-11-16T07:09:48.615Z,39.3571
2022-11-16T07:10:48.665Z,39.7143
2022-11-16T07:11:48.683Z,40
2022-11-16T07:12:48.709Z,42
2022-11-16T07:13:48.759Z,38.6429
2022-11-16T07:14:48.768Z,40.2143
2022-11-16T07:15:48.790Z,40
2022-11-16T07:16:48.827Z,39.8571
2022-11-16T07:17:48.878Z,41.2143
2022-11-16T07:18:48.879Z,39.4286
2022-11-16T07:19:48.909Z,40.2143
2022-11-16T07:20:48.964Z,40.5
2022-11-16T07:21:48.975Z,39.7143
2022-11-16T07:22:48.994Z,38.6429
2022-11-16T07:23:49.059Z,38.8571
2022-11-16T07:24:49.053Z,40.7143
2022-11-16T07:25:49.090Z,38.9286
2022-11-16T07:26:49.121Z,38.7143
2022-11-16T07:27:49.159Z,40.1429
2022-11-16T07:28:49.211Z,38.6429
2022-11-16T07:29:49.244Z,37.4286
2022-11-16T07:30:49.256Z,40.1429
2022-11-16T07:31:49.288Z,40.4286
2022-11-16T07:32:49.317Z,40.9286
2022-11-16T07:33:49.343Z,40.9286
2022-11-16T07:34:49.402Z,40.4286
2022-11-16T07:35:49.409Z,39.7143
2022-11-16T07:36:49.458Z,39.9286
2022-11-16T07:37:49.468Z,40.6429
2022-11-16T07:38:49.492Z,40.6429
2022-11-16T07:39:49.541Z,39.8571
2022-11-16T07:40:49.564Z,39.4286
2022-11-16T07:41:49.585Z,40.9286
2022-11-16T07:42:49.614Z,41.2143
2022-11-16T07:43:52.935Z,41.3571
2022-11-16T07:44:49.677Z,40.6429
2022-11-16T07:45:49.717Z,41.6429
2022-11-16T07:46:49.761Z,40.5
2022-11-16T07:47:49.765Z,40.2143
2022-11-16T07:48:49.793Z,39.7143
2022-11-16T07:49:49.830Z,39.2143
2022-11-16T07:50:49.864Z,40.4286
2022-11-16T07:51:49.871Z,40.6429
2022-11-16T07:52:49.893Z,41
2022-11-16T07:53:49.953Z,41.3571
2022-11-16T07:54:49.964Z,41
2022-11-16T07:55:50.023Z,41.1429
2022-11-16T07:56:50.032Z,39.6429
2022-11-16T07:57:53.264Z,38.4286
2022-11-16T07:58:50.121Z,39.3571
2022-11-16T07:59:50.137Z,38.6429
2022-11-16T08:00:50.162Z,39
2022-11-16T08:01:50.295Z,40
2022-11-16T08:02:50.218Z,39.2143
2022-11-16T08:03:50.272Z,40
2022-11-16T08:04:50.303Z,38.9286
2022-11-16T08:05:50.304Z,38.3571
2022-11-16T08:06:50.434Z,38.8571
2022-11-16T08:07:50.362Z,38.6429
2022-11-16T08:08:55.127Z,37.8571
2022-11-16T08:09:50.459Z,39.5
2022-11-16T08:10:50.462Z,38.2143
2022-11-16T08:11:50.500Z,38.8571
2022-11-16T08:12:50.552Z,38.8571
2022-11-16T08:13:50.554Z,38.5
2022-11-16T08:14:50.593Z,38.4286
2022-11-16T08:15:50.622Z,37.7143
2022-11-16T08:16:50.655Z,37.1429
2022-11-16T08:17:50.699Z,37.9286
2022-11-16T08:18:50.726Z,38.2143
2022-11-16T08:19:50.755Z,38.3571
2022-11-16T08:20:50.788Z,40.2143
2022-11-16T08:21:50.827Z,38.7143
2022-11-16T08:22:50.842Z,39.7143
2022-11-16T08:23:56.773Z,39.9286
2022-11-16T08:24:50.901Z,38.3571
2022-11-16T08:25:50.908Z,37.7143
2022-11-16T08:26:50.946Z,39.4286
2022-11-16T08:27:50.977Z,39
2022-11-16T08:28:51.005Z,38.6429
2022-11-16T08:29:51.053Z,39.7143
2022-11-16T08:30:53.711Z,40.7143
2022-11-16T08:31:51.093Z,39.5
2022-11-16T08:32:51.129Z,41
2022-11-16T08:33:51.162Z,39.2143
2022-11-16T08:34:51.210Z,40.1429
2022-11-16T08:35:51.220Z,39.4286
2022-11-16T08:36:51.254Z,39.4286
2022-11-16T08:37:51.288Z,40.6429
2022-11-16T08:38:51.312Z,39.8571
2022-11-16T08:39:51.371Z,41.3571
2022-11-16T08:40:51.379Z,43
2022-11-16T08:41:51.414Z,40
2022-11-16T08:42:51.439Z,38.9286
2022-11-16T08:43:51.464Z,41.4286
2022-11-16T08:44:51.514Z,40.7143
2022-11-16T08:45:51.509Z,40.4286
2022-11-16T08:46:51.543Z,42
2022-11-16T08:47:53.677Z,40.1429
2022-11-16T08:48:51.604Z,40.2143
2022-11-16T08:49:51.652Z,41.3571
2022-11-16T08:51:15.866Z,41.8571
2022-11-16T08:51:51.702Z,39.8571
2022-11-16T08:52:51.748Z,42.1429
2022-11-16T08:53:51.762Z,41.4286
2022-11-16T08:54:51.780Z,41
2022-11-16T08:55:51.808Z,39.7143
2022-11-16T08:56:51.844Z,40.2143
2022-11-16T08:57:51.895Z,41.4286
2022-11-16T08:58:57.806Z,39.4286
2022-11-16T08:59:51.945Z,39.6429
2022-11-16T09:00:51.996Z,39.3571
2022-11-16T09:01:52.059Z,38.5
2022-11-16T09:02:52.033Z,39.1429
2022-11-16T09:03:52.058Z,38.8571
2022-11-16T09:04:52.114Z,38.7143
2022-11-16T09:05:52.124Z,39.6429
2022-11-16T09:06:52.191Z,39.4286
2022-11-16T09:07:52.213Z,38.6429
2022-11-16T09:08:52.222Z,38.1429
2022-11-16T09:09:52.263Z,37.8571
2022-11-16T09:10:52.299Z,38.6429
2022-11-16T09:11:52.325Z,37.6429
2022-11-16T09:12:52.376Z,37.9286
2022-11-16T09:13:52.376Z,37
2022-11-16T09:14:52.405Z,37.2143
2022-11-16T09:15:52.472Z,36.8571
2022-11-16T09:16:52.471Z,36.7143
2022-11-16T09:17:52.493Z,36.5
2022-11-16T09:18:52.518Z,35.1429
2022-11-16T09:19:52.540Z,35.7143
2022-11-16T09:20:52.567Z,35.9286
2022-11-16T09:21:52.621Z,36.6429
2022-11-16T09:22:52.635Z,37.3571
2022-11-16T09:23:52.684Z,35.2143
2022-11-16T09:24:52.700Z,36.3571
2022-11-16T09:25:52.760Z,35.1429
2022-11-16T09:26:52.763Z,33.8571
2022-11-16T09:27:52.788Z,34.3571
2022-11-16T09:28:52.828Z,36.4286
2022-11-16T09:29:52.847Z,34
2022-11-16T09:30:52.906Z,36.5
2022-11-16T09:31:52.917Z,34.9286
2022-11-16T09:32:52.949Z,34.1429
2022-11-16T09:33:52.975Z,34.1429
2022-11-16T09:34:53.004Z,34.3571
2022-11-16T09:35:53.053Z,35.1429
2022-11-16T09:36:53.043Z,34.1429
2022-11-16T09:37:53.093Z,34
2022-11-16T09:39:28.760Z,34.3571
2022-11-16T09:39:53.157Z,32.5
2022-11-16T09:40:53.220Z,34.1429
2022-11-16T09:41:53.227Z,33
2022-11-16T09:42:53.257Z,32.1429
2022-11-16T09:43:53.311Z,33.6429
2022-11-16T09:44:53.331Z,32
2022-11-16T09:45:53.369Z,32.1429
2022-11-16T09:46:53.435Z,32.7143
2022-11-16T09:47:53.447Z,33
2022-11-16T09:48:53.475Z,31.4286
2022-11-16T09:49:56.839Z,30.5
2022-11-16T09:50:53.536Z,31.1429
2022-11-16T09:51:53.588Z,31.6429
2022-11-16T09:52:53.598Z,30.5
2022-11-16T09:53:53.635Z,29.1429
2022-11-16T09:54:53.671Z,30.6429
2022-11-16T09:55:53.725Z,30.1429
2022-11-16T09:56:53.731Z,30
2022-11-16T09:57:53.767Z,30.1429
2022-11-16T09:58:53.791Z,28
2022-11-16T09:59:53.826Z,29.1429
2022-11-16T10:00:53.937Z,27.9286
2022-11-16T10:01:53.906Z,28.6429
2022-11-16T10:02:53.913Z,29.3571
2022-11-16T10:03:53.967Z,29.1429
2022-11-16T10:04:58.194Z,26.9286
2022-11-16T10:05:54.004Z,27.8571
2022-11-16T10:06:54.131Z,26.7143
2022-11-16T10:07:54.103Z,26.6429
2022-11-16T10:08:54.106Z,26.4286
2022-11-16T10:09:54.144Z,24.8571
2022-11-16T10:10:54.197Z,25.2143
2022-11-16T10:11:54.202Z,24.6429
2022-11-16T10:12:54.232Z,24.6429
2022-11-16T10:13:54.258Z,24
2022-11-16T10:14:54.296Z,23.7143
2022-11-16T10:15:54.342Z,21.7143
2022-11-16T10:16:54.342Z,20.9286
2022-11-16T10:17:54.373Z,20.8571
2022-11-16T10:18:54.434Z,20.5
2022-11-16T10:19:54.443Z,19.6429
2022-11-16T10:20:54.470Z,19.4286
2022-11-16T10:21:54.544Z,19
2022-11-16T10:22:54.559Z,18.7143
2022-11-16T10:23:54.587Z,18.6429
2022-11-16T10:24:54.594Z,18.3571
2022-11-16T10:25:54.625Z,17.5
2022-11-16T10:26:54.664Z,17.8571
2022-11-16T10:27:54.684Z,18.1429
2022-11-16T10:28:54.739Z,17.5
2022-11-16T10:29:54.746Z,18.1429
2022-11-16T10:30:54.786Z,16
2022-11-16T10:31:54.819Z,17.5
2022-11-16T10:32:54.848Z,17.2143
2022-11-16T10:33:54.887Z,17.1429
2022-11-16T10:34:54.900Z,16.8571
2022-11-16T10:35:54.926Z,16.9286
2022-11-16T10:36:54.954Z,17.2143
2022-11-16T10:37:54.980Z,17.1429
2022-11-16T10:38:55.042Z,16.4286
2022-11-16T10:39:55.076Z,17.6429
2022-11-16T10:40:55.086Z,17.9286
2022-11-16T10:41:55.113Z,16.8571
2022-11-16T10:42:55.142Z,17.5
2022-11-16T10:43:55.191Z,17
2022-11-16T10:44:55.205Z,17.4286
2022-11-16T10:45:55.236Z,17.3571
2022-11-16T10:46:55.271Z,17.7143
2022-11-16T10:47:55.294Z,17.6429
2022-11-16T10:48:55.349Z,17
2022-11-16T10:49:55.371Z,18.1429
2022-11-16T10:50:55.424Z,18.1429
2022-11-16T10:51:55.441Z,18.5
2022-11-16T10:52:55.465Z,18.8571
2022-11-16T10:53:55.519Z,19.1429
2022-11-16T10:54:55.528Z,20
2022-11-16T10:55:55.559Z,20
2022-11-16T10:56:55.600Z,18.7143
2022-11-16T10:57:55.624Z,18.3571
2022-11-16T10:58:55.667Z,19.2143
2022-11-16T10:59:55.698Z,18.9286
2022-11-16T11:00:55.784Z,19.2143
2022-11-16T11:01:55.761Z,20
2022-11-16T11:02:55.802Z,19.3571
2022-11-16T11:03:55.842Z,19.1429
2022-11-16T11:04:55.873Z,19.8571
2022-11-16T11:05:55.898Z,19.9286
2022-11-16T11:06:56.028Z,19.7143
2022-11-16T11:07:59.604Z,19
2022-11-16T11:08:56.005Z,20.1429
2022-11-16T11:09:56.042Z,18.8571
2022-11-16T11:10:56.064Z,20
2022-11-16T11:11:56.096Z,20
2022-11-16T11:12:56.117Z,19.7143
2022-11-16T11:13:56.180Z,19.4286
2022-11-16T11:14:56.206Z,20.7143
2022-11-16T11:15:56.222Z,21
2022-11-16T11:16:56.259Z,20.9286
2022-11-16T11:17:56.297Z,20.6429
2022-11-16T11:18:56.325Z,20.3571
2022-11-16T11:19:56.367Z,19.3571
2022-11-16T11:20:56.394Z,21.5
2022-11-16T11:21:56.430Z,22.3571
2022-11-16T11:22:56.453Z,21
2022-11-16T11:24:10.555Z,20.6429
2022-11-16T11:24:56.519Z,20
2022-11-16T11:25:56.556Z,20.5
2022-11-16T11:26:56.582Z,21
2022-11-16T11:27:56.616Z,21.2143
2022-11-16T11:28:56.651Z,21.3571
2022-11-16T11:29:56.679Z,21.8571
2022-11-16T11:30:56.725Z,21.1429
2022-11-16T11:31:56.738Z,21
2022-11-16T11:32:56.764Z,22.6429
2022-11-16T11:33:56.801Z,22.2143
2022-11-16T11:34:56.843Z,21.9286
2022-11-16T11:35:56.855Z,21.1429
2022-11-16T11:36:56.889Z,21.4286
2022-11-16T11:37:56.921Z,22.2143
2022-11-16T11:38:57.046Z,22.4286
2022-11-16T11:39:56.992Z,20.7143
2022-11-16T11:40:57.007Z,21
2022-11-16T11:41:57.034Z,22.1429
2022-11-16T11:42:57.071Z,20.4286
2022-11-16T11:43:57.126Z,20.7143
2022-11-16T11:44:57.145Z,20.3571
2022-11-16T11:45:57.170Z,20.1429
2022-11-16T11:47:42.400Z,22
2022-11-16T11:47:59.438Z,20.8571
2022-11-16T11:48:57.260Z,20.4286
2022-11-16T11:49:57.285Z,21.1429
2022-11-16T11:50:57.323Z,19.4286
2022-11-16T11:51:57.360Z,20.5
2022-11-16T11:52:57.386Z,21
2022-11-16T11:53:57.442Z,20.4286
2022-11-16T11:54:57.443Z,20.7143
2022-11-16T11:55:57.480Z,20.2143
2022-11-16T11:56:57.493Z,21
2022-11-16T11:57:57.523Z,20.4286
2022-11-16T11:58:57.570Z,21.3571
2022-11-16T11:59:57.584Z,20.2143
2022-11-16T12:00:57.624Z,20.7143
2022-11-16T12:01:57.631Z,20.8571
2022-11-16T12:02:57.686Z,22.5
2022-11-16T12:03:57.687Z,21.3571
2022-11-16T12:04:57.728Z,20.9286
2022-11-16T12:05:57.768Z,21.7143
2022-11-16T12:06:57.868Z,21.8571
2022-11-16T12:07:57.826Z,21.7143
2022-11-16T12:08:57.860Z,21.2143
2022-11-16T12:09:57.885Z,21
2022-11-16T12:10:57.897Z,20.8571
2022-11-16T12:11:57.961Z,21.2143
2022-11-16T12:12:57.972Z,23.9286
2022-11-16T12:13:57.998Z,21.7143
2022-11-16T12:14:58.034Z,21.8571
2022-11-16T12:15:58.054Z,22.6429
2022-11-16T12:16:58.106Z,21.1429
2022-11-16T12:17:58.118Z,22.1429
2022-11-16T12:18:58.176Z,23
2022-11-16T12:19:58.187Z,23.6429
2022-11-16T12:20:58.210Z,22.4286
2022-11-16T12:21:58.257Z,22.9286
2022-11-16T12:23:02.690Z,24.3571
2022-11-16T12:23:58.318Z,23.4286
2022-11-16T12:24:58.326Z,24.1429
2022-11-16T12:25:58.349Z,23.5